Time;durP1;ratioP1;P1;durP2;ratioP2;P2;SDS_P1;SDS_P2;PMS_P1;PMS_P2;Temp;Humidity;BMP_temperature;BMP_pressure;BME280_temperature;BME280_humidity;BME280_pressure;Samples;Min_cycle;Max_cycle;Signal;HPM_P1;HPM_P2
2021/06/26 00:00:27;;;;;;;18.67;16.67;;;16.40;99.90;;;;;;5047935;28;20486;-71
2021/06/26 00:02:54;;;;;;;21.30;17.17;;;16.40;99.90;;;;;;5049172;28;20484;-70
2021/06/26 00:05:21;;;;;;;20.27;17.33;;;16.40;99.90;;;;;;5049744;28;20479;-70
2021/06/26 00:07:49;;;;;;;17.90;16.00;;;16.40;99.90;;;;;;5049054;28;20471;-70
2021/06/26 00:10:16;;;;;;;19.00;16.93;;;16.40;99.90;;;;;;5048566;28;20452;-70
2021/06/26 00:12:43;;;;;;;21.13;16.03;;;16.40;99.90;;;;;;5039744;28;20458;-70
2021/06/26 00:15:12;;;;;;;19.07;17.20;;;16.40;99.90;;;;;;5042112;28;20468;-71
2021/06/26 00:17:39;;;;;;;20.67;16.60;;;16.30;99.90;;;;;;5042957;28;20586;-70
2021/06/26 00:20:07;;;;;;;22.13;17.40;;;16.20;99.90;;;;;;5047756;28;20456;-69
2021/06/26 00:22:34;;;;;;;20.13;16.90;;;16.10;99.90;;;;;;5047599;28;21032;-69
2021/06/26 00:25:02;;;;;;;18.43;16.40;;;16.10;99.90;;;;;;5047906;28;20547;-70
2021/06/26 00:27:31;;;;;;;18.83;16.90;;;16.10;99.90;;;;;;5047246;28;20495;-72
2021/06/26 00:29:58;;;;;;;20.43;18.30;;;16.20;99.90;;;;;;5047159;28;20862;-69
2021/06/26 00:32:25;;;;;;;20.37;16.17;;;16.20;99.90;;;;;;5047902;28;20887;-71
2021/06/26 00:34:52;;;;;;;20.57;17.77;;;16.20;99.90;;;;;;5046943;28;20535;-70
2021/06/26 00:37:18;;;;;;;18.80;15.90;;;16.40;99.90;;;;;;5047237;28;21055;-69
2021/06/26 00:39:45;;;;;;;19.83;17.87;;;16.40;99.90;;;;;;5046611;28;20542;-70
2021/06/26 00:42:14;;;;;;;17.83;15.30;;;16.30;99.90;;;;;;5047294;28;20475;-70
2021/06/26 00:44:41;;;;;;;18.57;16.67;;;16.30;99.90;;;;;;5041474;28;20479;-70
2021/06/26 00:47:12;;;;;;;20.97;17.67;;;16.20;99.90;;;;;;5046101;28;20448;-71
2021/06/26 00:49:40;;;;;;;20.20;16.80;;;16.30;99.90;;;;;;5048695;28;20454;-69
2021/06/26 00:52:07;;;;;;;18.23;16.43;;;16.30;99.90;;;;;;5049114;28;20519;-68
2021/06/26 00:54:35;;;;;;;17.77;16.07;;;16.30;99.90;;;;;;5049421;28;20484;-68
2021/06/26 00:57:03;;;;;;;19.20;17.13;;;16.30;99.90;;;;;;5048782;28;20879;-68
2021/06/26 00:59:31;;;;;;;21.10;18.40;;;16.20;99.90;;;;;;5048313;28;20951;-68
2021/06/26 01:01:58;;;;;;;18.93;16.50;;;16.20;99.90;;;;;;5049617;28;20990;-70
2021/06/26 01:04:25;;;;;;;20.00;16.77;;;16.20;99.90;;;;;;5049520;28;20448;-70
2021/06/26 01:06:53;;;;;;;18.23;15.90;;;16.20;99.90;;;;;;5049032;28;20443;-69
2021/06/26 01:09:20;;;;;;;21.70;17.93;;;16.30;99.90;;;;;;5048539;28;20819;-70
2021/06/26 01:11:47;;;;;;;19.20;17.20;;;16.30;99.90;;;;;;5053290;28;20817;-69
2021/06/26 01:14:14;;;;;;;18.53;16.23;;;16.30;99.90;;;;;;5052395;28;20462;-69
2021/06/26 01:16:42;;;;;;;25.77;18.57;;;16.30;99.90;;;;;;5052727;28;20482;-70
2021/06/26 01:19:11;;;;;;;18.47;16.57;;;16.30;99.90;;;;;;5052009;28;20492;-70
2021/06/26 01:21:38;;;;;;;19.77;17.70;;;16.30;99.90;;;;;;5052857;28;20458;-70
2021/06/26 01:24:07;;;;;;;20.33;16.23;;;16.30;99.90;;;;;;5052807;28;20439;-69
2021/06/26 01:26:35;;;;;;;18.37;16.37;;;16.30;99.90;;;;;;5052169;28;20454;-70
2021/06/26 01:29:03;;;;;;;19.77;17.73;;;16.20;99.90;;;;;;5051890;28;21160;-69
2021/06/26 01:31:30;;;;;;;19.63;17.10;;;16.20;99.90;;;;;;5052576;28;20448;-70
2021/06/26 01:33:57;;;;;;;19.60;16.67;;;16.20;99.90;;;;;;5052265;28;20538;-70
2021/06/26 01:36:24;;;;;;;19.33;17.30;;;16.20;99.90;;;;;;5052335;28;20450;-70
2021/06/26 01:38:55;;;;;;;18.93;16.93;;;16.20;99.90;;;;;;5052271;28;21013;-70
2021/06/26 01:41:24;;;;;;;19.37;17.37;;;16.20;99.90;;;;;;5052203;28;21078;-70
2021/06/26 01:43:51;;;;;;;21.00;17.50;;;16.30;99.90;;;;;;5052493;28;20540;-69
2021/06/26 01:46:18;;;;;;;19.77;16.73;;;16.30;99.90;;;;;;5051712;28;20471;-70
2021/06/26 01:48:45;;;;;;;23.70;17.23;;;16.30;99.90;;;;;;5052310;28;20459;-69
2021/06/26 01:51:12;;;;;;;18.80;16.90;;;16.40;99.90;;;;;;5051097;28;20456;-70
2021/06/26 01:53:39;;;;;;;20.47;17.33;;;16.40;99.90;;;;;;5051925;28;20484;-70
2021/06/26 01:56:07;;;;;;;19.50;16.67;;;16.40;99.90;;;;;;5051460;28;20452;-69
2021/06/26 01:58:35;;;;;;;19.77;17.53;;;16.30;99.90;;;;;;5051687;28;20493;-69
2021/06/26 02:01:02;;;;;;;21.03;18.20;;;16.30;99.90;;;;;;5051001;28;20515;-69
2021/06/26 02:03:29;;;;;;;20.63;18.20;;;16.30;99.90;;;;;;5052075;28;20474;-70
2021/06/26 02:05:56;;;;;;;20.30;18.20;;;16.30;99.90;;;;;;5051930;28;20448;-70
2021/06/26 02:08:23;;;;;;;22.10;19.63;;;16.20;99.90;;;;;;5052043;28;20460;-70
2021/06/26 02:10:50;;;;;;;21.23;17.87;;;16.20;99.90;;;;;;5051069;28;20483;-70
2021/06/26 02:13:17;;;;;;;21.20;18.80;;;16.20;99.90;;;;;;5051474;28;20448;-69
2021/06/26 02:15:45;;;;;;;19.80;17.67;;;16.10;99.90;;;;;;5051947;28;20452;-70
2021/06/26 02:18:12;;;;;;;18.20;16.30;;;16.20;99.90;;;;;;5051184;28;20483;-70
2021/06/26 02:20:39;;;;;;;17.27;15.53;;;16.20;99.90;;;;;;5050378;28;20455;-69
2021/06/26 02:23:06;;;;;;;20.67;16.97;;;16.20;99.90;;;;;;5050958;28;20534;-70
2021/06/26 02:25:32;;;;;;;19.90;17.77;;;16.20;99.90;;;;;;5051751;28;20531;-70
2021/06/26 02:27:59;;;;;;;20.83;17.90;;;16.10;99.90;;;;;;5050775;28;20468;-70
2021/06/26 02:30:26;;;;;;;21.63;17.20;;;16.10;99.90;;;;;;5050467;28;20486;-70
2021/06/26 02:32:54;;;;;;;21.70;19.40;;;16.10;99.90;;;;;;5051039;28;20959;-70
2021/06/26 02:35:21;;;;;;;24.10;19.00;;;16.20;99.90;;;;;;5051325;28;20448;-70
2021/06/26 02:37:48;;;;;;;20.20;18.07;;;16.20;99.90;;;;;;5051217;28;21208;-69
2021/06/26 02:40:16;;;;;;;21.03;18.90;;;16.30;99.90;;;;;;5050321;28;20539;-69
2021/06/26 02:42:43;;;;;;;20.83;18.20;;;16.40;99.90;;;;;;5051110;28;20476;-70
2021/06/26 02:45:11;;;;;;;19.23;17.27;;;16.40;99.90;;;;;;5051129;28;20527;-69
2021/06/26 02:47:38;;;;;;;19.97;17.73;;;16.40;99.90;;;;;;5050727;28;20459;-69
2021/06/26 02:50:09;;;;;;;18.07;16.37;;;16.30;99.90;;;;;;5049982;28;20438;-69
2021/06/26 02:52:36;;;;;;;21.63;18.67;;;16.30;99.90;;;;;;5051528;28;21334;-69
2021/06/26 02:55:03;;;;;;;21.20;18.97;;;16.20;99.90;;;;;;5051061;28;21207;-70
2021/06/26 02:57:30;;;;;;;20.93;18.00;;;16.20;99.90;;;;;;5050822;28;20555;-69
2021/06/26 02:59:57;;;;;;;22.60;19.00;;;16.20;99.90;;;;;;5050039;28;20526;-69
2021/06/26 03:02:26;;;;;;;20.67;18.27;;;16.20;99.90;;;;;;5051057;28;20574;-70
2021/06/26 03:04:53;;;;;;;20.37;18.27;;;16.30;99.90;;;;;;5051028;28;20448;-70
2021/06/26 03:07:21;;;;;;;19.53;17.33;;;16.40;99.90;;;;;;5052212;28;20470;-70
2021/06/26 03:09:48;;;;;;;21.57;19.07;;;16.30;99.90;;;;;;5050382;28;20444;-70
2021/06/26 03:12:15;;;;;;;20.70;18.60;;;16.30;99.90;;;;;;5050824;28;20535;-69
2021/06/26 03:14:42;;;;;;;22.87;20.57;;;16.40;99.90;;;;;;5050463;28;20450;-70
2021/06/26 03:17:10;;;;;;;22.13;19.83;;;16.40;99.90;;;;;;5049700;28;21037;-69
2021/06/26 03:19:38;;;;;;;23.03;19.83;;;16.40;99.90;;;;;;5049659;28;20566;-69
2021/06/26 03:22:05;;;;;;;22.60;19.33;;;16.30;99.90;;;;;;5050212;28;20955;-70
2021/06/26 03:24:34;;;;;;;20.70;18.60;;;16.30;99.90;;;;;;5050230;28;20481;-69
2021/06/26 03:27:00;;;;;;;21.43;19.13;;;16.40;99.90;;;;;;5049697;28;20454;-69
2021/06/26 03:29:27;;;;;;;24.00;19.10;;;16.40;99.90;;;;;;5049602;28;20530;-70
2021/06/26 03:31:54;;;;;;;22.87;20.00;;;16.30;99.90;;;;;;5050348;28;20824;-70
2021/06/26 03:34:21;;;;;;;22.37;19.90;;;16.30;99.90;;;;;;5050438;28;20458;-69
2021/06/26 03:36:48;;;;;;;24.37;21.67;;;16.30;99.90;;;;;;5050181;28;20833;-69
2021/06/26 03:39:15;;;;;;;23.03;20.63;;;16.30;99.90;;;;;;5049507;28;20487;-69
2021/06/26 03:41:43;;;;;;;21.63;19.27;;;16.30;99.90;;;;;;5050147;28;20536;-70
2021/06/26 03:44:10;;;;;;;22.80;19.40;;;16.30;99.90;;;;;;5049977;28;20444;-70
2021/06/26 03:46:37;;;;;;;23.23;20.63;;;16.20;99.90;;;;;;5050111;28;20943;-69
2021/06/26 03:49:04;;;;;;;25.93;20.40;;;16.10;99.90;;;;;;5049082;28;20545;-68
2021/06/26 03:51:31;;;;;;;25.27;22.43;;;16.10;99.90;;;;;;5050159;28;20448;-68
2021/06/26 03:53:58;;;;;;;23.00;20.60;;;16.10;99.90;;;;;;5049842;28;21013;-68
2021/06/26 03:56:25;;;;;;;23.87;21.33;;;16.10;99.90;;;;;;5049790;28;20535;-69
2021/06/26 03:58:53;;;;;;;25.07;22.63;;;16.10;99.90;;;;;;5049367;28;20574;-69
2021/06/26 04:01:20;;;;;;;24.37;21.87;;;16.00;99.90;;;;;;5049546;28;20467;-68
2021/06/26 04:03:48;;;;;;;23.40;21.03;;;16.10;99.90;;;;;;5050177;28;20452;-69
2021/06/26 04:06:15;;;;;;;23.43;20.90;;;16.10;99.90;;;;;;5049415;28;20459;-71
2021/06/26 04:08:42;;;;;;;24.77;21.63;;;16.10;99.90;;;;;;5049801;28;20522;-69
2021/06/26 04:11:09;;;;;;;22.87;20.47;;;16.00;99.90;;;;;;5048806;28;20444;-69
2021/06/26 04:13:36;;;;;;;23.93;21.03;;;16.00;99.90;;;;;;5049601;28;20527;-69
2021/06/26 04:16:04;;;;;;;24.93;22.33;;;16.00;99.90;;;;;;5049212;28;20495;-69
2021/06/26 04:18:31;;;;;;;24.90;22.17;;;16.00;99.90;;;;;;5049577;28;20487;-69
2021/06/26 04:20:58;;;;;;;25.80;22.70;;;15.90;99.90;;;;;;5049031;28;20551;-69
2021/06/26 04:23:25;;;;;;;26.17;22.80;;;15.90;99.90;;;;;;5049611;28;20456;-69
2021/06/26 04:25:52;;;;;;;23.83;21.23;;;15.90;99.90;;;;;;5049403;28;20448;-69
2021/06/26 04:28:19;;;;;;;25.27;22.77;;;15.90;99.90;;;;;;5049315;28;20470;-69
2021/06/26 04:30:45;;;;;;;29.40;23.37;;;15.90;99.90;;;;;;5049057;28;20548;-69
2021/06/26 04:33:14;;;;;;;28.67;24.63;;;15.90;99.90;;;;;;5049942;28;20888;-69
2021/06/26 04:35:41;;;;;;;25.03;22.50;;;15.90;99.90;;;;;;5049610;28;20544;-69
2021/06/26 04:38:08;;;;;;;27.40;23.90;;;15.90;99.90;;;;;;5049387;28;20547;-69
2021/06/26 04:40:35;;;;;;;25.63;21.30;;;15.80;99.90;;;;;;5048845;28;20520;-69
2021/06/26 04:43:02;;;;;;;24.17;20.87;;;15.90;99.90;;;;;;5050063;28;20462;-69
2021/06/26 04:45:28;;;;;;;25.93;22.60;;;15.90;99.90;;;;;;5052157;28;20455;-69
2021/06/26 04:48:00;;;;;;;25.13;22.47;;;15.90;99.90;;;;;;5053455;28;20502;-69
2021/06/26 04:50:28;;;;;;;23.27;20.77;;;15.90;99.90;;;;;;5053140;28;20477;-69
2021/06/26 04:52:55;;;;;;;23.53;21.10;;;15.90;99.90;;;;;;5053243;28;20517;-70
2021/06/26 04:55:22;;;;;;;24.27;21.23;;;16.00;99.90;;;;;;5053894;28;20465;-70
2021/06/26 04:57:49;;;;;;;24.07;21.70;;;16.00;99.90;;;;;;5052401;28;20559;-69
2021/06/26 05:00:17;;;;;;;25.20;22.50;;;16.10;99.90;;;;;;5052275;28;20483;-69
2021/06/26 05:02:43;;;;;;;25.67;22.87;;;16.20;99.90;;;;;;5052935;28;20534;-72
2021/06/26 05:05:11;;;;;;;25.73;23.03;;;16.30;99.90;;;;;;5052949;28;20436;-70
2021/06/26 05:07:39;;;;;;;23.47;20.97;;;16.30;99.90;;;;;;5052430;28;20905;-70
2021/06/26 05:10:07;;;;;;;29.17;21.40;;;16.40;99.90;;;;;;5052276;28;20479;-69
2021/06/26 05:12:34;;;;;;;22.47;20.13;;;16.40;99.90;;;;;;5053054;28;20440;-69
2021/06/26 05:15:01;;;;;;;23.70;21.10;;;16.50;99.90;;;;;;5053088;28;20543;-70
2021/06/26 05:17:28;;;;;;;23.23;20.80;;;16.50;99.90;;;;;;5052440;28;20470;-69
2021/06/26 05:19:54;;;;;;;23.47;21.07;;;16.60;99.90;;;;;;5051398;28;20515;-70
2021/06/26 05:22:22;;;;;;;22.40;20.03;;;16.70;99.90;;;;;;5051995;28;20523;-69
2021/06/26 05:24:50;;;;;;;23.57;21.17;;;16.70;99.90;;;;;;5052466;28;20439;-69
2021/06/26 05:27:17;;;;;;;23.80;21.30;;;16.70;99.90;;;;;;5052228;28;20436;-70
2021/06/26 05:29:44;;;;;;;22.87;20.57;;;16.70;99.90;;;;;;5052455;28;20535;-70
2021/06/26 05:32:11;;;;;;;22.93;20.60;;;16.80;99.90;;;;;;5053083;28;20534;-70
2021/06/26 05:34:38;;;;;;;25.33;22.13;;;16.80;99.90;;;;;;5052189;28;20440;-70
2021/06/26 05:37:05;;;;;;;23.40;21.00;;;16.90;99.90;;;;;;5052067;28;20530;-69
2021/06/26 05:39:32;;;;;;;21.33;19.20;;;17.00;99.90;;;;;;5051366;28;21025;-70
2021/06/26 05:42:00;;;;;;;22.43;20.23;;;17.10;99.90;;;;;;5051916;28;20565;-70
2021/06/26 05:44:27;;;;;;;23.00;20.60;;;17.20;99.90;;;;;;5051764;28;20451;-70
2021/06/26 05:46:54;;;;;;;23.07;20.67;;;17.20;99.90;;;;;;5051786;28;20530;-70
2021/06/26 05:49:21;;;;;;;21.73;19.43;;;17.40;99.90;;;;;;5051141;28;20462;-70
2021/06/26 05:51:48;;;;;;;20.97;18.87;;;17.50;99.90;;;;;;5051625;28;21008;-70
2021/06/26 05:54:14;;;;;;;20.93;18.73;;;17.60;99.90;;;;;;5051809;28;20446;-70
2021/06/26 05:56:41;;;;;;;22.80;20.60;;;17.70;99.90;;;;;;5050966;28;20551;-70
2021/06/26 05:59:09;;;;;;;26.13;21.53;;;17.70;99.90;;;;;;5050765;28;20491;-70
2021/06/26 06:01:37;;;;;;;21.37;19.03;;;17.70;99.90;;;;;;5051368;28;20479;-70
2021/06/26 06:04:03;;;;;;;20.70;18.43;;;17.80;99.90;;;;;;5051863;28;20675;-70
2021/06/26 06:06:30;;;;;;;22.60;20.33;;;17.80;99.90;;;;;;5051678;28;20440;-69
2021/06/26 06:08:57;;;;;;;21.90;18.80;;;18.00;99.90;;;;;;5051030;28;20912;-70
2021/06/26 06:11:24;;;;;;;19.93;17.90;;;18.30;99.90;;;;;;5051098;28;20455;-70
2021/06/26 06:13:51;;;;;;;21.33;18.80;;;18.60;99.90;;;;;;5051323;28;20452;-68
2021/06/26 06:16:19;;;;;;;20.20;18.27;;;18.70;99.90;;;;;;5050707;28;20440;-70
2021/06/26 06:18:46;;;;;;;18.30;16.40;;;18.90;99.90;;;;;;5050991;28;20566;-70
2021/06/26 06:21:14;;;;;;;22.70;19.17;;;19.10;99.90;;;;;;5050550;28;20539;-70
2021/06/26 06:23:41;;;;;;;19.87;17.73;;;19.50;99.90;;;;;;5051240;28;20455;-71
2021/06/26 06:26:08;;;;;;;18.70;16.90;;;19.90;99.90;;;;;;5050737;28;20440;-70
2021/06/26 06:28:35;;;;;;;17.27;15.67;;;20.20;99.90;;;;;;5050937;28;20579;-70
2021/06/26 06:31:02;;;;;;;20.40;18.50;;;20.50;99.90;;;;;;5050482;28;20452;-70
2021/06/26 06:33:31;;;;;;;17.63;15.73;;;20.60;99.90;;;;;;5050723;28;20972;-70
2021/06/26 06:35:58;;;;;;;18.13;16.43;;;21.00;99.90;;;;;;5050740;28;20448;-66
2021/06/26 06:38:24;;;;;;;18.90;17.00;;;21.20;99.90;;;;;;5051303;28;20495;-66
2021/06/26 06:40:51;;;;;;;20.43;17.40;;;20.90;99.90;;;;;;5050096;28;20498;-66
2021/06/26 06:43:18;;;;;;;18.03;16.13;;;20.70;99.90;;;;;;5051208;28;20534;-66
2021/06/26 06:45:45;;;;;;;18.97;16.13;;;20.90;99.90;;;;;;5051288;28;20536;-66
2021/06/26 06:48:12;;;;;;;17.33;15.63;;;20.70;99.90;;;;;;5050200;28;20899;-66
2021/06/26 06:50:41;;;;;;;17.63;15.93;;;20.80;99.90;;;;;;5049678;28;20996;-66
2021/06/26 06:53:08;;;;;;;18.47;16.77;;;20.90;99.90;;;;;;5050686;28;20924;-67
2021/06/26 06:55:35;;;;;;;19.83;17.73;;;20.90;99.90;;;;;;5050385;28;20534;-67
2021/06/26 06:58:01;;;;;;;19.33;17.33;;;20.80;99.90;;;;;;5049987;28;20900;-67
2021/06/26 07:00:28;;;;;;;17.10;15.50;;;20.90;99.90;;;;;;5049300;28;21032;-68
2021/06/26 07:02:55;;;;;;;21.07;17.70;;;21.10;99.90;;;;;;5059685;28;20534;-67
2021/06/26 07:05:22;;;;;;;20.47;16.23;;;21.20;99.90;;;;;;5053147;28;20907;-69
2021/06/26 07:07:50;;;;;;;19.50;17.50;;;21.10;99.90;;;;;;5051273;28;20458;-68
2021/06/26 07:10:17;;;;;;;18.50;16.60;;;21.00;99.90;;;;;;5049523;28;20440;-69
2021/06/26 07:12:44;;;;;;;17.93;16.03;;;20.80;99.90;;;;;;5050159;28;20509;-68
2021/06/26 07:15:11;;;;;;;19.90;18.00;;;21.20;99.90;;;;;;5050398;28;20983;-68
2021/06/26 07:17:38;;;;;;;18.43;16.40;;;21.40;99.90;;;;;;5049860;28;20464;-69
2021/06/26 07:20:06;;;;;;;17.87;16.17;;;21.30;99.90;;;;;;5049168;28;20484;-69
2021/06/26 07:22:33;;;;;;;18.97;17.13;;;21.00;99.90;;;;;;5050238;28;20487;-69
2021/06/26 07:25:01;;;;;;;18.83;17.00;;;21.10;99.90;;;;;;5050192;28;20527;-70
2021/06/26 07:27:29;;;;;;;17.23;15.53;;;21.30;99.90;;;;;;5049612;28;20563;-69
2021/06/26 07:29:56;;;;;;;17.17;15.63;;;21.40;99.90;;;;;;5049396;28;20452;-69
2021/06/26 07:32:22;;;;;;;17.50;15.63;;;21.50;99.90;;;;;;5050075;28;20448;-70
2021/06/26 07:34:50;;;;;;;15.53;14.00;;;21.40;99.90;;;;;;5050396;28;20550;-70
2021/06/26 07:37:17;;;;;;;17.80;16.10;;;21.20;99.90;;;;;;5049694;28;20451;-68
2021/06/26 07:39:44;;;;;;;16.00;14.40;;;21.10;99.90;;;;;;5049085;28;20936;-68
2021/06/26 07:42:12;;;;;;;16.30;12.90;;;21.10;99.90;;;;;;5050158;28;20538;-69
2021/06/26 07:44:39;;;;;;;14.90;13.13;;;21.20;99.90;;;;;;5049942;28;20539;-68
2021/06/26 07:47:06;;;;;;;22.00;13.10;;;21.30;99.90;;;;;;5049853;28;20467;-68
2021/06/26 07:49:33;;;;;;;12.23;11.10;;;21.40;99.90;;;;;;5049250;28;20448;-68
2021/06/26 07:52:00;;;;;;;12.50;11.20;;;21.60;99.90;;;;;;5050515;28;20535;-69
2021/06/26 07:54:27;;;;;;;12.97;11.67;;;21.80;99.90;;;;;;5049698;28;20597;-70
2021/06/26 07:56:53;;;;;;;14.20;12.90;;;21.90;99.90;;;;;;5056583;28;20532;-69
2021/06/26 07:59:22;;;;;;;12.83;11.63;;;22.00;99.90;;;;;;5049284;28;20517;-70
2021/06/26 08:01:48;;;;;;;13.32;12.02;;;22.30;99.90;;;;;;5048454;28;20436;-70
2021/06/26 08:04:15;;;;;;;11.97;10.97;;;22.40;99.90;;;;;;5021943;28;20289;-70
2021/06/26 08:06:43;;;;;;;11.80;10.63;;;22.50;99.90;;;;;;5027384;28;20549;-70
2021/06/26 08:09:09;;;;;;;10.97;9.87;;;22.70;99.90;;;;;;5041748;28;20555;-71
2021/06/26 08:11:36;;;;;;;11.30;10.20;;;22.90;99.90;;;;;;5049404;28;20882;-70
2021/06/26 08:14:03;;;;;;;11.43;10.27;;;23.20;99.90;;;;;;5049666;28;20486;-71
2021/06/26 08:16:32;;;;;;;12.13;10.93;;;23.30;99.90;;;;;;5049039;28;20513;-71
2021/06/26 08:18:58;;;;;;;10.50;9.57;;;23.30;99.90;;;;;;5050200;28;21056;-70
2021/06/26 08:21:26;;;;;;;10.83;9.83;;;23.40;99.90;;;;;;5053421;28;20586;-71
2021/06/26 08:23:54;;;;;;;10.80;9.70;;;23.70;99.90;;;;;;5049574;28;20466;-71
2021/06/26 08:26:20;;;;;;;9.57;8.67;;;24.00;99.90;;;;;;5060108;28;20447;-72
2021/06/26 08:28:48;;;;;;;9.77;8.87;;;23.90;99.90;;;;;;5054146;28;20550;-70
2021/06/26 08:31:15;;;;;;;9.70;8.90;;;24.00;99.90;;;;;;5053235;28;20525;-71
2021/06/26 08:33:43;;;;;;;8.90;8.00;;;23.90;99.90;;;;;;5053053;28;20604;-71
2021/06/26 08:36:10;;;;;;;9.13;8.23;;;23.90;99.90;;;;;;5042105;28;20506;-71
2021/06/26 08:38:39;;;;;;;9.43;8.53;;;24.00;99.90;;;;;;5061322;28;20502;-73
2021/06/26 08:41:06;;;;;;;9.77;8.90;;;23.90;99.90;;;;;;5064208;28;20510;-72
2021/06/26 08:43:34;;;;;;;10.20;9.20;;;24.00;99.90;;;;;;5070045;28;20482;-69
2021/06/26 08:46:01;;;;;;;9.73;8.73;;;24.10;99.90;;;;;;5063720;28;20439;-70
2021/06/26 08:48:29;;;;;;;10.13;9.03;;;24.00;99.90;;;;;;5072298;28;20491;-70
2021/06/26 08:50:57;;;;;;;10.90;10.00;;;24.10;99.90;;;;;;5071313;28;20679;-70
2021/06/26 08:53:24;;;;;;;10.63;9.63;;;23.80;99.90;;;;;;5071864;28;20465;-70
2021/06/26 08:55:53;;;;;;;9.90;9.10;;;23.50;99.90;;;;;;5055192;28;20460;-71
2021/06/26 08:58:20;;;;;;;11.00;10.00;;;23.40;99.90;;;;;;5047773;28;20566;-70
2021/06/26 09:00:48;;;;;;;10.70;9.80;;;23.40;99.90;;;;;;5048845;28;20491;-71
2021/06/26 09:03:17;;;;;;;10.90;9.93;;;23.40;99.90;;;;;;5038838;28;20471;-71
2021/06/26 09:05:46;;;;;;;11.33;10.33;;;23.60;99.90;;;;;;5041485;28;20970;-72
2021/06/26 09:08:16;;;;;;;11.00;10.00;;;23.80;99.90;;;;;;5033312;28;20518;-73
2021/06/26 09:10:45;;;;;;;12.60;11.40;;;24.10;99.90;;;;;;5053016;28;20437;-71
2021/06/26 09:13:13;;;;;;;10.13;9.33;;;24.00;99.90;;;;;;5062753;28;21133;-69
2021/06/26 09:15:41;;;;;;;11.73;10.73;;;23.90;99.90;;;;;;5071686;28;20504;-71
2021/06/26 09:18:13;;;;;;;11.37;10.27;;;24.10;99.90;;;;;;5071332;28;20538;-70
2021/06/26 09:20:42;;;;;;;12.50;11.40;;;24.30;99.90;;;;;;5070424;28;20514;-70
2021/06/26 09:23:30;;;;;;;10.73;9.83;;;24.40;99.90;;;;;;5070321;28;20520;-71
2021/06/26 09:26:08;;;;;;;11.53;10.37;;;24.70;99.90;;;;;;5050866;28;20924;-70
2021/06/26 09:28:35;;;;;;;10.30;9.40;;;24.60;99.90;;;;;;5052259;28;20554;-71
2021/06/26 09:31:02;;;;;;;11.00;10.00;;;24.70;99.90;;;;;;5050748;28;20448;-69
2021/06/26 09:33:30;;;;;;;12.60;11.50;;;25.00;99.90;;;;;;5052387;28;21028;-71
2021/06/26 09:36:02;;;;;;;11.70;10.50;;;25.10;99.90;;;;;;5051668;28;21011;-72
2021/06/26 09:38:32;;;;;;;11.57;9.60;;;25.30;99.90;;;;;;5052217;28;20472;-72
2021/06/26 09:41:00;;;;;;;11.90;10.80;;;25.30;99.90;;;;;;5045306;28;20551;-71
2021/06/26 09:43:29;;;;;;;11.17;10.20;;;25.20;99.90;;;;;;5029476;28;20932;-69
2021/06/26 09:46:07;;;;;;;10.27;9.27;;;25.30;99.90;;;;;;5050982;28;20452;-69
2021/06/26 09:48:34;;;;;;;12.67;10.03;;;25.30;99.90;;;;;;5054271;28;20912;-71
2021/06/26 09:51:01;;;;;;;10.37;9.50;;;25.60;99.90;;;;;;5062777;28;20561;-70
2021/06/26 09:53:29;;;;;;;10.77;9.77;;;25.60;99.90;;;;;;5057714;28;21118;-73
2021/06/26 09:55:56;;;;;;;10.80;9.80;;;25.60;99.90;;;;;;5066222;28;20498;-71
2021/06/26 09:58:23;;;;;;;10.30;9.40;;;26.10;99.90;;;;;;5060255;28;20505;-69
2021/06/26 10:00:50;;;;;;;11.20;10.27;;;25.60;99.90;;;;;;5065807;28;20475;-70
2021/06/26 10:03:19;;;;;;;9.33;8.53;;;25.90;99.90;;;;;;5064719;28;20980;-70
2021/06/26 10:05:47;;;;;;;9.73;8.83;;;26.80;99.90;;;;;;5070461;28;20853;-69
2021/06/26 10:08:16;;;;;;;9.53;8.60;;;27.60;99.90;;;;;;5062506;28;20473;-71
2021/06/26 10:10:44;;;;;;;10.30;9.40;;;28.20;99.50;;;;;;5067660;28;20475;-69
2021/06/26 10:13:13;;;;;;;10.63;8.70;;;27.10;98.30;;;;;;5070020;28;20452;-69
2021/06/26 10:15:40;;;;;;;8.90;8.20;;;27.30;99.90;;;;;;5070336;28;20985;-69
2021/06/26 10:18:10;;;;;;;9.77;8.97;;;27.50;99.90;;;;;;5069973;28;20478;-70
2021/06/26 10:20:38;;;;;;;8.60;7.90;;;27.60;99.90;;;;;;5058566;28;20876;-72
2021/06/26 10:23:05;;;;;;;10.40;9.47;;;27.90;98.70;;;;;;5041855;28;20447;-70
2021/06/26 10:25:33;;;;;;;8.40;7.60;;;28.30;96.60;;;;;;5054310;28;20867;-70
2021/06/26 10:28:09;;;;;;;9.13;8.37;;;28.80;97.70;;;;;;5045537;28;20981;-69
2021/06/26 10:30:37;;;;;;;8.80;8.10;;;29.20;96.80;;;;;;5035744;28;20437;-70
2021/06/26 10:33:06;;;;;;;8.80;8.10;;;29.40;96.60;;;;;;5042198;28;20532;-69
2021/06/26 10:35:35;;;;;;;9.33;8.53;;;29.30;96.90;;;;;;5047802;28;20823;-70
2021/06/26 10:38:04;;;;;;;9.10;8.30;;;28.90;98.80;;;;;;5036645;28;20495;-70
2021/06/26 10:40:38;;;;;;;8.70;7.80;;;29.00;93.70;;;;;;5039365;28;20512;-70
2021/06/26 10:43:24;;;;;;;8.77;8.00;;;27.60;95.50;;;;;;5045063;28;20526;-70
2021/06/26 10:45:53;;;;;;;9.00;8.30;;;27.60;98.50;;;;;;5035317;28;20960;-69
2021/06/26 10:48:22;;;;;;;9.33;8.40;;;28.30;97.30;;;;;;5041251;28;20564;-69
2021/06/26 10:50:51;;;;;;;9.03;8.13;;;28.80;93.60;;;;;;5049858;28;20439;-71
2021/06/26 10:53:26;;;;;;;8.70;8.00;;;29.70;95.40;;;;;;5053483;28;20819;-71
2021/06/26 10:56:10;;;;;;;8.37;7.67;;;29.70;93.00;;;;;;5040185;28;20451;-70
2021/06/26 10:58:40;;;;;;;9.30;8.60;;;29.00;95.80;;;;;;5035528;28;20476;-70
2021/06/26 11:01:15;;;;;;;9.40;8.60;;;28.70;94.70;;;;;;5038703;28;20566;-70
2021/06/26 11:03:43;;;;;;;8.67;7.93;;;28.20;94.30;;;;;;5050591;28;20538;-69
2021/06/26 11:06:19;;;;;;;8.57;7.80;;;28.20;94.90;;;;;;5050145;28;20527;-70
2021/06/26 11:08:56;;;;;;;8.53;7.83;;;28.10;95.00;;;;;;5050231;28;20546;-69
2021/06/26 11:11:31;;;;;;;7.50;6.90;;;27.80;95.40;;;;;;5050026;28;20450;-70
2021/06/26 11:14:12;;;;;;;8.27;7.47;;;28.70;97.10;;;;;;5051188;28;20547;-71
2021/06/26 11:16:41;;;;;;;8.50;7.80;;;29.60;93.20;;;;;;5050664;28;20506;-71
2021/06/26 11:19:08;;;;;;;7.93;7.23;;;29.50;90.70;;;;;;5049224;28;20511;-69
2021/06/26 11:21:40;;;;;;;8.40;7.70;;;29.30;92.90;;;;;;5049812;28;20666;-69
2021/06/26 11:24:08;;;;;;;7.13;6.43;;;29.10;95.10;;;;;;5049916;28;20466;-69
2021/06/26 11:26:49;;;;;;;7.90;7.30;;;29.00;94.90;;;;;;5048779;28;20444;-69
2021/06/26 11:29:31;;;;;;;8.13;7.30;;;29.30;95.30;;;;;;5049195;28;20546;-69
2021/06/26 11:32:00;;;;;;;8.67;7.97;;;29.70;93.70;;;;;;5048733;28;20447;-69
2021/06/26 11:34:28;;;;;;;8.13;7.40;;;29.80;93.40;;;;;;5049797;28;20558;-67
2021/06/26 11:37:01;;;;;;;7.10;6.40;;;30.30;93.20;;;;;;5049250;28;20499;-68
2021/06/26 11:39:28;;;;;;;8.67;7.97;;;31.20;92.20;;;;;;5049442;28;20434;-67
2021/06/26 11:41:55;;;;;;;7.83;7.23;;;31.20;91.90;;;;;;5049821;28;20558;-68
2021/06/26 11:44:38;;;;;;;7.50;6.90;;;30.50;94.00;;;;;;5049813;28;20536;-67
2021/06/26 11:47:07;;;;;;;7.30;6.70;;;30.70;94.90;;;;;;5049246;28;20502;-68
2021/06/26 11:49:38;;;;;;;7.83;7.20;;;30.60;91.00;;;;;;5032507;28;20453;-68
2021/06/26 11:52:08;;;;;;;8.43;7.63;;;30.70;91.00;;;;;;5029393;28;20531;-68
2021/06/26 11:54:35;;;;;;;7.43;6.87;;;31.10;91.40;;;;;;5029430;28;20449;-69
2021/06/26 11:57:02;;;;;;;6.80;6.20;;;31.60;89.10;;;;;;5029144;28;20459;-69
2021/06/26 11:59:45;;;;;;;6.90;6.40;;;31.60;84.40;;;;;;5028656;28;20832;-68
2021/06/26 12:02:14;;;;;;;7.13;6.53;;;31.80;90.60;;;;;;5029580;28;20551;-68
2021/06/26 12:04:42;;;;;;;7.03;6.40;;;31.50;87.90;;;;;;5029717;28;20507;-69
2021/06/26 12:07:10;;;;;;;7.00;6.40;;;31.30;87.50;;;;;;5029295;28;20481;-68
2021/06/26 12:09:40;;;;;;;7.00;6.40;;;31.30;90.00;;;;;;5028460;28;20536;-67
2021/06/26 12:12:08;;;;;;;7.23;6.63;;;31.60;86.00;;;;;;5029907;28;20480;-68
2021/06/26 12:14:36;;;;;;;6.90;6.33;;;31.80;85.00;;;;;;5029647;28;20449;-68
2021/06/26 12:17:13;;;;;;;6.60;6.10;;;32.20;88.50;;;;;;5029638;28;20503;-67
2021/06/26 12:19:40;;;;;;;6.27;5.77;;;32.80;86.40;;;;;;5028777;28;20491;-67
2021/06/26 12:22:08;;;;;;;7.13;6.53;;;33.00;87.00;;;;;;5029120;28;20497;-67
2021/06/26 12:24:37;;;;;;;6.30;5.80;;;33.20;82.50;;;;;;5029541;28;20448;-68
2021/06/26 12:27:07;;;;;;;6.53;6.00;;;33.70;87.50;;;;;;5029037;28;20939;-68
2021/06/26 12:29:34;;;;;;;6.53;6.03;;;34.00;87.60;;;;;;5028990;28;20448;-67
2021/06/26 12:32:01;;;;;;;7.10;6.40;;;34.20;81.30;;;;;;5029395;28;20441;-67
2021/06/26 12:34:31;;;;;;;6.63;6.13;;;33.50;78.00;;;;;;5029687;28;20455;-68
2021/06/26 12:36:59;;;;;;;6.60;6.00;;;33.20;74.00;;;;;;5029398;28;20536;-66